Terminal Aerodrome Forecast
Issued by NWS

Home | Current Version | Previous Version | Graphics & Text | Print | Product List | Glossary On
Versions: 1 2 3 4 5 6 7 8 9 10 11 12 13 14 15
000
FTUS43 KFGF 170959 AAA
TAFBJI
TAF AMD
KBJI 170959Z 1710/1806 22007KT P6SM BKN021
      TEMPO 1710/1712 SCT021
     FM171200 25007KT P6SM BKN050
     FM171500 28007KT P6SM SCT110
     FM171800 29011KT P6SM SCT200
     FM180400 27007KT P6SM SCT140=

USA.gov is the U.S. government's official web portal to all federal, state and local government web resources and services.